»·PEaware :: SKW1187 KSAN-KLAS

SKW1187 :: KSAN-KLAS

FLIGHT INFORMATION

Flight Status: Arrived
Operator:
SkyWest Airlines
More flights by this operator :: More flights under this callsign
Pilot: Anonymous 12254 (12254)
Aircraft: CANADAIR CL-600 CRJ-200
(CRJ2)
More flights by this aircraft type
Origin: KSAN San Diego Intl-Lindbergh
United States
Destination: KLAS McCarran Intl
United States
More flights between these airports :: More routes between these airports
Route: PADRZ2 CHKNN SEBBY YELAH MISEN KEPEC6
File this flight plan on PilotEdge
Remarks:
Altitude:
(Current/Filed)
31,000ft
Speed:
(Current/Filed)
430kts
Departed: 28-May-19 10:54 AM
Arrived: 28-May-19 11:55 AM
Distance/Time
Traveled:
225nm/1:01
Distance/Time
To Go:
Arrived

Flight Plot

Page will automatically refresh every two minutes.

Flight plan parsing failed; only flown route is shown


Map Options




Map Legend


Flown Route
Filed Route
Departure Airport
Arrival Airport
Navaid (VOR, NDB)
Fix

Horizontal Profiles

Position Reports

Time Latitude Longitude Heading Altitude Ground
Speed
28-May-19 10:30 32.734158 -117.202696 15 15ft 0kts
28-May-19 10:31 32.734158 -117.202696 15 15ft 0kts
28-May-19 10:32 32.734158 -117.202696 15 15ft 0kts
28-May-19 10:33 32.734158 -117.202696 15 15ft 0kts
28-May-19 10:34 32.734158 -117.202696 15 15ft 0kts
28-May-19 10:35 32.734158 -117.202696 15 15ft 0kts
28-May-19 10:36 32.734158 -117.202696 15 15ft 0kts
28-May-19 10:37 32.734158 -117.202696 15 15ft 0kts
28-May-19 10:38 32.734158 -117.202696 15 15ft 0kts
28-May-19 10:39 32.734158 -117.202696 15 15ft 0kts
28-May-19 10:40 32.734158 -117.202696 15 15ft 0kts
28-May-19 10:41 32.734158 -117.202696 15 15ft 0kts
28-May-19 10:42 32.734158 -117.202696 15 15ft 0kts
28-May-19 10:43 32.734158 -117.202696 15 15ft 0kts
28-May-19 10:44 32.734174 -117.202691 15 15ft 0kts
28-May-19 10:45 32.735039 -117.202399 18 15ft 5kts
28-May-19 10:46 32.735064 -117.200144 105 15ft 10kts
28-May-19 10:47 32.734107 -117.196218 105 16ft 13kts
28-May-19 10:48 32.733087 -117.192004 105 18ft 14kts
28-May-19 10:49 32.732398 -117.188926 109 16ft 2kts
28-May-19 10:50 32.731588 -117.185783 105 15ft 17kts
28-May-19 10:51 32.729781 -117.178357 106 18ft 25kts
28-May-19 10:52 32.729522 -117.176693 77 20ft 4kts
28-May-19 10:53 32.733877 -117.191119 285 19ft 165kts
28-May-19 10:54 32.758429 -117.251016 307 2621ft 196kts
28-May-19 10:55 32.792794 -117.307509 305 4778ft 225kts
28-May-19 10:56 32.833105 -117.370331 307 6167ft 254kts
28-May-19 10:57 32.877548 -117.439279 307 7194ft 269kts
28-May-19 10:58 32.923750 -117.511096 307 7952ft 272kts
28-May-19 10:59 32.970883 -117.584544 307 7957ft 279kts
28-May-19 11:00 33.015492 -117.654201 307 9258ft 254kts
28-May-19 11:01 33.057013 -117.719141 307 10719ft 239kts
28-May-19 11:02 33.110052 -117.776372 319 12295ft 286kts
28-May-19 11:03 33.176835 -117.844549 319 13943ft 343kts
28-May-19 11:04 33.255555 -117.922042 320 15804ft 388kts
28-May-19 11:05 33.343750 -118.008230 320 17652ft 428kts
28-May-19 11:06 33.438010 -118.100586 320 20127ft 445kts
28-May-19 11:07 33.535613 -118.196500 320 22396ft 459kts
28-May-19 11:08 33.646313 -118.274842 335 24406ft 462kts
28-May-19 11:09 33.767072 -118.283144 25 26406ft 443kts
28-May-19 11:10 33.849670 -118.183614 54 28389ft 420kts
28-May-19 11:11 33.915596 -118.072205 54 30347ft 395kts
28-May-19 11:12 33.978569 -117.965687 54 30952ft 385kts
28-May-19 11:13 34.040360 -117.860869 54 30952ft 378kts
28-May-19 11:14 34.102080 -117.759279 50 30955ft 373kts
28-May-19 11:15 34.168804 -117.661472 50 30957ft 384kts
28-May-19 11:16 34.237742 -117.559861 54 30952ft 395kts
28-May-19 11:17 34.288673 -117.440640 57 30971ft 403kts
28-May-19 11:18 34.353318 -117.326993 49 30951ft 413kts
28-May-19 11:19 34.431460 -117.224691 48 30952ft 411kts
28-May-19 11:20 34.506892 -117.121970 48 30952ft 402kts
28-May-19 11:21 34.580431 -117.021449 48 30815ft 396kts
28-May-19 11:22 34.652706 -116.922371 48 29817ft 385kts
28-May-19 11:23 34.722945 -116.825814 48 28807ft 377kts
28-May-19 11:24 34.791753 -116.730957 48 27803ft 370kts
28-May-19 11:25 34.860880 -116.639187 38 26799ft 365kts
28-May-19 11:26 34.928355 -116.548491 35 25801ft 359kts
28-May-19 11:27 35.019345 -116.500947 38 24615ft 360kts
28-May-19 11:28 35.091724 -116.416929 45 23948ft 347kts
28-May-19 11:29 35.153980 -116.337200 43 23944ft 312kts
28-May-19 11:30 35.215506 -116.262051 45 22963ft 313kts
28-May-19 11:31 35.276313 -116.185807 45 21615ft 319kts
28-May-19 11:32 35.339772 -116.105915 45 19698ft 330kts
28-May-19 11:33 35.403161 -116.025914 45 18199ft 325kts
28-May-19 11:34 35.465692 -115.946797 45 16767ft 316kts
28-May-19 11:35 35.522338 -115.874970 45 16013ft 295kts
28-May-19 11:36 35.579938 -115.801777 45 14522ft 300kts
28-May-19 11:37 35.638272 -115.727485 45 13099ft 300kts
28-May-19 11:38 35.692997 -115.657640 45 13088ft 284kts
28-May-19 11:39 35.747922 -115.588428 36 13066ft 279kts
28-May-19 11:40 35.822872 -115.572557 3 13072ft 274kts
28-May-19 11:41 35.898782 -115.567683 2 13072ft 271kts
28-May-19 11:42 35.970381 -115.548947 49 12770ft 274kts
28-May-19 11:43 36.003200 -115.462015 67 11822ft 284kts
28-May-19 11:44 36.029035 -115.370620 91 11068ft 269kts
28-May-19 11:45 36.024153 -115.282149 94 10311ft 262kts
28-May-19 11:46 36.018174 -115.196795 94 9444ft 244kts
28-May-19 11:47 36.012479 -115.113010 94 8109ft 239kts
28-May-19 11:48 36.007417 -115.038034 94 7630ft 207kts
28-May-19 11:49 36.003458 -114.971631 78 6124ft 189kts
28-May-19 11:50 36.045921 -114.967252 300 4344ft 184kts
28-May-19 11:51 36.068449 -115.020788 287 3163ft 159kts
28-May-19 11:52 36.073807 -115.071072 269 2509ft 151kts
28-May-19 11:53 36.073782 -115.121167 265 2155ft 142kts
28-May-19 11:55 36.074496 -115.145446 299 2099ft 0kts
28-May-19 11:56 36.074555 -115.145577 299 2099ft 3kts

Navigation Log

Ident Type
Flight plan parsing failed, navigation log unavailable